sensor_id;sensor_type;location;lat;lon;timestamp;P1;durP1;ratioP1;P2;durP2;ratioP2
73428;SDS011;61643;49.564;17.412;2023-04-28T00:02:00;6.68;;;3.95;;
73428;SDS011;61643;49.564;17.412;2023-04-28T00:04:27;8.55;;;4.65;;
73428;SDS011;61643;49.564;17.412;2023-04-28T00:06:53;9.60;;;4.20;;
73428;SDS011;61643;49.564;17.412;2023-04-28T00:09:19;7.10;;;4.18;;
73428;SDS011;61643;49.564;17.412;2023-04-28T00:11:46;7.85;;;3.85;;
73428;SDS011;61643;49.564;17.412;2023-04-28T00:14:13;8.98;;;4.32;;
73428;SDS011;61643;49.564;17.412;2023-04-28T00:16:39;5.38;;;3.72;;
73428;SDS011;61643;49.564;17.412;2023-04-28T00:19:04;9.32;;;4.72;;
73428;SDS011;61643;49.564;17.412;2023-04-28T00:21:30;6.97;;;3.90;;
73428;SDS011;61643;49.564;17.412;2023-04-28T00:23:56;7.90;;;4.35;;
73428;SDS011;61643;49.564;17.412;2023-04-28T00:26:22;6.15;;;3.75;;
73428;SDS011;61643;49.564;17.412;2023-04-28T00:28:48;7.93;;;3.88;;
73428;SDS011;61643;49.564;17.412;2023-04-28T00:31:15;10.18;;;3.38;;
73428;SDS011;61643;49.564;17.412;2023-04-28T00:33:41;6.70;;;3.50;;
73428;SDS011;61643;49.564;17.412;2023-04-28T00:36:08;5.05;;;3.53;;
73428;SDS011;61643;49.564;17.412;2023-04-28T00:38:34;8.48;;;3.80;;
73428;SDS011;61643;49.564;17.412;2023-04-28T00:41:01;7.13;;;4.05;;
73428;SDS011;61643;49.564;17.412;2023-04-28T00:43:27;5.88;;;3.75;;
73428;SDS011;61643;49.564;17.412;2023-04-28T00:45:53;7.25;;;3.83;;
73428;SDS011;61643;49.564;17.412;2023-04-28T00:48:19;5.82;;;3.33;;
73428;SDS011;61643;49.564;17.412;2023-04-28T00:50:46;5.55;;;3.47;;
73428;SDS011;61643;49.564;17.412;2023-04-28T00:53:12;5.43;;;3.45;;
73428;SDS011;61643;49.564;17.412;2023-04-28T00:55:39;7.00;;;3.90;;
73428;SDS011;61643;49.564;17.412;2023-04-28T00:58:05;7.07;;;3.63;;
73428;SDS011;61643;49.564;17.412;2023-04-28T01:00:31;6.72;;;3.78;;
73428;SDS011;61643;49.564;17.412;2023-04-28T01:02:58;7.57;;;3.75;;
73428;SDS011;61643;49.564;17.412;2023-04-28T01:05:24;5.70;;;3.67;;
73428;SDS011;61643;49.564;17.412;2023-04-28T01:07:51;7.55;;;3.60;;
73428;SDS011;61643;49.564;17.412;2023-04-28T01:10:17;6.57;;;3.90;;
73428;SDS011;61643;49.564;17.412;2023-04-28T01:12:44;7.10;;;3.53;;
73428;SDS011;61643;49.564;17.412;2023-04-28T01:15:16;5.30;;;3.17;;
73428;SDS011;61643;49.564;17.412;2023-04-28T01:17:44;7.93;;;3.72;;
73428;SDS011;61643;49.564;17.412;2023-04-28T01:20:11;7.30;;;3.78;;
73428;SDS011;61643;49.564;17.412;2023-04-28T01:22:37;6.00;;;3.70;;
73428;SDS011;61643;49.564;17.412;2023-04-28T01:25:03;6.72;;;3.70;;
73428;SDS011;61643;49.564;17.412;2023-04-28T01:27:30;4.95;;;3.20;;
73428;SDS011;61643;49.564;17.412;2023-04-28T01:29:55;6.03;;;3.40;;
73428;SDS011;61643;49.564;17.412;2023-04-28T01:32:23;5.40;;;3.63;;
73428;SDS011;61643;49.564;17.412;2023-04-28T01:34:49;5.43;;;3.50;;
73428;SDS011;61643;49.564;17.412;2023-04-28T01:37:15;6.47;;;3.72;;
73428;SDS011;61643;49.564;17.412;2023-04-28T01:39:41;6.90;;;3.60;;
73428;SDS011;61643;49.564;17.412;2023-04-28T01:42:07;5.30;;;3.65;;
73428;SDS011;61643;49.564;17.412;2023-04-28T01:44:33;7.00;;;3.92;;
73428;SDS011;61643;49.564;17.412;2023-04-28T01:46:59;6.85;;;3.78;;
73428;SDS011;61643;49.564;17.412;2023-04-28T01:49:25;8.00;;;3.42;;
73428;SDS011;61643;49.564;17.412;2023-04-28T01:51:51;6.75;;;3.90;;
73428;SDS011;61643;49.564;17.412;2023-04-28T01:54:17;6.97;;;4.38;;
73428;SDS011;61643;49.564;17.412;2023-04-28T01:56:43;7.43;;;4.53;;
73428;SDS011;61643;49.564;17.412;2023-04-28T01:59:09;7.82;;;4.20;;
73428;SDS011;61643;49.564;17.412;2023-04-28T02:01:35;8.45;;;4.05;;
73428;SDS011;61643;49.564;17.412;2023-04-28T02:04:01;6.90;;;4.05;;
73428;SDS011;61643;49.564;17.412;2023-04-28T02:06:27;10.88;;;4.00;;
73428;SDS011;61643;49.564;17.412;2023-04-28T02:08:53;8.93;;;4.50;;
73428;SDS011;61643;49.564;17.412;2023-04-28T02:11:19;7.78;;;4.47;;
73428;SDS011;61643;49.564;17.412;2023-04-28T02:13:45;9.05;;;4.78;;
73428;SDS011;61643;49.564;17.412;2023-04-28T02:16:11;7.00;;;3.83;;
73428;SDS011;61643;49.564;17.412;2023-04-28T02:18:37;9.07;;;4.13;;
73428;SDS011;61643;49.564;17.412;2023-04-28T02:21:10;10.10;;;4.00;;
73428;SDS011;61643;49.564;17.412;2023-04-28T02:23:36;9.35;;;4.22;;
73428;SDS011;61643;49.564;17.412;2023-04-28T02:26:03;7.15;;;3.65;;
73428;SDS011;61643;49.564;17.412;2023-04-28T02:28:29;5.60;;;3.80;;
73428;SDS011;61643;49.564;17.412;2023-04-28T02:31:08;6.05;;;3.58;;
73428;SDS011;61643;49.564;17.412;2023-04-28T02:33:35;5.88;;;3.70;;
73428;SDS011;61643;49.564;17.412;2023-04-28T02:36:03;5.82;;;3.53;;
73428;SDS011;61643;49.564;17.412;2023-04-28T02:38:30;6.32;;;3.88;;
73428;SDS011;61643;49.564;17.412;2023-04-28T02:41:00;8.05;;;3.95;;
73428;SDS011;61643;49.564;17.412;2023-04-28T02:43:27;6.97;;;3.53;;
73428;SDS011;61643;49.564;17.412;2023-04-28T02:45:53;7.60;;;3.78;;
73428;SDS011;61643;49.564;17.412;2023-04-28T02:48:19;6.72;;;3.88;;
73428;SDS011;61643;49.564;17.412;2023-04-28T02:50:46;8.15;;;4.22;;
73428;SDS011;61643;49.564;17.412;2023-04-28T02:53:11;12.10;;;4.00;;
73428;SDS011;61643;49.564;17.412;2023-04-28T02:55:37;9.57;;;3.60;;
73428;SDS011;61643;49.564;17.412;2023-04-28T02:58:03;5.97;;;3.50;;
73428;SDS011;61643;49.564;17.412;2023-04-28T03:00:30;8.70;;;4.13;;
73428;SDS011;61643;49.564;17.412;2023-04-28T03:02:56;6.88;;;3.63;;
73428;SDS011;61643;49.564;17.412;2023-04-28T03:05:22;8.30;;;3.97;;
73428;SDS011;61643;49.564;17.412;2023-04-28T03:07:47;6.60;;;3.75;;
73428;SDS011;61643;49.564;17.412;2023-04-28T03:10:13;7.78;;;3.70;;
73428;SDS011;61643;49.564;17.412;2023-04-28T03:12:39;6.78;;;3.60;;
73428;SDS011;61643;49.564;17.412;2023-04-28T03:15:05;6.32;;;3.67;;
73428;SDS011;61643;49.564;17.412;2023-04-28T03:17:35;5.53;;;3.67;;
73428;SDS011;61643;49.564;17.412;2023-04-28T03:20:03;5.85;;;3.38;;
73428;SDS011;61643;49.564;17.412;2023-04-28T03:22:30;6.18;;;3.22;;
73428;SDS011;61643;49.564;17.412;2023-04-28T03:24:56;7.18;;;3.40;;
73428;SDS011;61643;49.564;17.412;2023-04-28T03:27:22;5.30;;;3.25;;
73428;SDS011;61643;49.564;17.412;2023-04-28T03:29:48;8.27;;;3.90;;
73428;SDS011;61643;49.564;17.412;2023-04-28T03:32:14;6.70;;;3.75;;
73428;SDS011;61643;49.564;17.412;2023-04-28T03:34:39;4.97;;;3.38;;
73428;SDS011;61643;49.564;17.412;2023-04-28T03:37:06;6.22;;;3.65;;
73428;SDS011;61643;49.564;17.412;2023-04-28T03:39:32;8.45;;;3.72;;
73428;SDS011;61643;49.564;17.412;2023-04-28T03:41:58;7.15;;;3.47;;
73428;SDS011;61643;49.564;17.412;2023-04-28T03:44:24;4.95;;;3.55;;
73428;SDS011;61643;49.564;17.412;2023-04-28T03:46:50;7.97;;;3.88;;
73428;SDS011;61643;49.564;17.412;2023-04-28T03:49:16;6.47;;;4.10;;
73428;SDS011;61643;49.564;17.412;2023-04-28T03:51:42;7.18;;;4.07;;
73428;SDS011;61643;49.564;17.412;2023-04-28T03:54:08;9.25;;;5.47;;
73428;SDS011;61643;49.564;17.412;2023-04-28T03:56:34;13.85;;;5.82;;
73428;SDS011;61643;49.564;17.412;2023-04-28T03:59:00;13.43;;;6.32;;
73428;SDS011;61643;49.564;17.412;2023-04-28T04:01:26;11.88;;;5.55;;
73428;SDS011;61643;49.564;17.412;2023-04-28T04:03:52;15.00;;;5.10;;
73428;SDS011;61643;49.564;17.412;2023-04-28T04:06:18;9.32;;;4.57;;
73428;SDS011;61643;49.564;17.412;2023-04-28T04:08:44;9.30;;;4.50;;
73428;SDS011;61643;49.564;17.412;2023-04-28T04:11:10;7.45;;;4.18;;
73428;SDS011;61643;49.564;17.412;2023-04-28T04:13:36;11.52;;;4.72;;
73428;SDS011;61643;49.564;17.412;2023-04-28T04:16:02;8.23;;;4.57;;
73428;SDS011;61643;49.564;17.412;2023-04-28T04:18:28;9.38;;;4.70;;
73428;SDS011;61643;49.564;17.412;2023-04-28T04:20:54;10.07;;;5.13;;
73428;SDS011;61643;49.564;17.412;2023-04-28T04:23:22;8.43;;;4.65;;
73428;SDS011;61643;49.564;17.412;2023-04-28T04:25:48;14.32;;;5.38;;
73428;SDS011;61643;49.564;17.412;2023-04-28T04:28:14;8.20;;;4.90;;
73428;SDS011;61643;49.564;17.412;2023-04-28T04:30:40;9.48;;;4.80;;
73428;SDS011;61643;49.564;17.412;2023-04-28T04:33:06;11.27;;;5.07;;
73428;SDS011;61643;49.564;17.412;2023-04-28T04:35:33;11.32;;;4.75;;
73428;SDS011;61643;49.564;17.412;2023-04-28T04:37:59;15.73;;;8.00;;
73428;SDS011;61643;49.564;17.412;2023-04-28T04:40:26;14.18;;;7.63;;
73428;SDS011;61643;49.564;17.412;2023-04-28T04:42:51;13.50;;;6.85;;
73428;SDS011;61643;49.564;17.412;2023-04-28T04:45:17;15.05;;;6.40;;
73428;SDS011;61643;49.564;17.412;2023-04-28T04:47:45;10.93;;;5.43;;
73428;SDS011;61643;49.564;17.412;2023-04-28T04:50:11;6.65;;;4.13;;
73428;SDS011;61643;49.564;17.412;2023-04-28T04:52:37;6.70;;;4.00;;
73428;SDS011;61643;49.564;17.412;2023-04-28T04:55:03;7.22;;;4.32;;
73428;SDS011;61643;49.564;17.412;2023-04-28T04:57:29;8.93;;;4.60;;
73428;SDS011;61643;49.564;17.412;2023-04-28T04:59:55;5.75;;;3.25;;
73428;SDS011;61643;49.564;17.412;2023-04-28T05:02:21;6.75;;;3.90;;
73428;SDS011;61643;49.564;17.412;2023-04-28T05:04:47;6.90;;;3.60;;
73428;SDS011;61643;49.564;17.412;2023-04-28T05:07:13;6.18;;;3.78;;
73428;SDS011;61643;49.564;17.412;2023-04-28T05:09:39;7.63;;;3.47;;
73428;SDS011;61643;49.564;17.412;2023-04-28T05:12:05;7.20;;;3.72;;
73428;SDS011;61643;49.564;17.412;2023-04-28T05:14:31;7.40;;;3.50;;
73428;SDS011;61643;49.564;17.412;2023-04-28T05:16:57;7.70;;;3.50;;
73428;SDS011;61643;49.564;17.412;2023-04-28T05:19:23;6.70;;;3.70;;
73428;SDS011;61643;49.564;17.412;2023-04-28T05:21:49;7.80;;;4.00;;
73428;SDS011;61643;49.564;17.412;2023-04-28T05:24:19;7.40;;;4.00;;
73428;SDS011;61643;49.564;17.412;2023-04-28T05:26:48;7.75;;;4.22;;
73428;SDS011;61643;49.564;17.412;2023-04-28T05:29:16;8.52;;;4.43;;
73428;SDS011;61643;49.564;17.412;2023-04-28T05:31:41;7.15;;;4.30;;
73428;SDS011;61643;49.564;17.412;2023-04-28T05:34:07;10.23;;;4.60;;
73428;SDS011;61643;49.564;17.412;2023-04-28T05:36:33;6.65;;;4.20;;
73428;SDS011;61643;49.564;17.412;2023-04-28T05:39:00;6.78;;;4.30;;
73428;SDS011;61643;49.564;17.412;2023-04-28T05:41:26;9.40;;;4.40;;
73428;SDS011;61643;49.564;17.412;2023-04-28T05:43:52;9.30;;;4.78;;
73428;SDS011;61643;49.564;17.412;2023-04-28T05:46:18;10.85;;;4.88;;
73428;SDS011;61643;49.564;17.412;2023-04-28T05:48:44;11.63;;;4.40;;
73428;SDS011;61643;49.564;17.412;2023-04-28T05:51:10;6.03;;;3.97;;
73428;SDS011;61643;49.564;17.412;2023-04-28T05:53:36;8.25;;;4.15;;
73428;SDS011;61643;49.564;17.412;2023-04-28T05:56:02;6.78;;;4.53;;
73428;SDS011;61643;49.564;17.412;2023-04-28T05:58:28;6.72;;;4.10;;
73428;SDS011;61643;49.564;17.412;2023-04-28T06:00:54;7.43;;;3.60;;
73428;SDS011;61643;49.564;17.412;2023-04-28T06:03:20;8.98;;;4.28;;
73428;SDS011;61643;49.564;17.412;2023-04-28T06:05:46;7.10;;;3.70;;
73428;SDS011;61643;49.564;17.412;2023-04-28T06:08:12;6.50;;;3.90;;
73428;SDS011;61643;49.564;17.412;2023-04-28T06:10:38;7.32;;;3.97;;
73428;SDS011;61643;49.564;17.412;2023-04-28T06:13:04;5.30;;;3.05;;
73428;SDS011;61643;49.564;17.412;2023-04-28T06:15:31;6.63;;;3.40;;
73428;SDS011;61643;49.564;17.412;2023-04-28T06:17:58;7.13;;;3.45;;
73428;SDS011;61643;49.564;17.412;2023-04-28T06:20:24;5.38;;;3.15;;
73428;SDS011;61643;49.564;17.412;2023-04-28T06:22:50;6.35;;;2.92;;
73428;SDS011;61643;49.564;17.412;2023-04-28T06:25:16;4.50;;;2.75;;
73428;SDS011;61643;49.564;17.412;2023-04-28T06:27:42;5.30;;;2.88;;
73428;SDS011;61643;49.564;17.412;2023-04-28T06:30:08;3.65;;;2.67;;
73428;SDS011;61643;49.564;17.412;2023-04-28T06:32:34;3.65;;;2.35;;
73428;SDS011;61643;49.564;17.412;2023-04-28T06:35:00;5.00;;;2.60;;
73428;SDS011;61643;49.564;17.412;2023-04-28T06:37:26;6.00;;;2.95;;
73428;SDS011;61643;49.564;17.412;2023-04-28T06:39:52;5.35;;;3.00;;
73428;SDS011;61643;49.564;17.412;2023-04-28T06:42:18;4.43;;;2.92;;
73428;SDS011;61643;49.564;17.412;2023-04-28T06:44:45;4.50;;;2.63;;
73428;SDS011;61643;49.564;17.412;2023-04-28T06:47:10;4.30;;;2.58;;
73428;SDS011;61643;49.564;17.412;2023-04-28T06:49:36;5.43;;;2.90;;
73428;SDS011;61643;49.564;17.412;2023-04-28T06:52:02;5.05;;;2.90;;
73428;SDS011;61643;49.564;17.412;2023-04-28T06:54:28;6.38;;;3.40;;
73428;SDS011;61643;49.564;17.412;2023-04-28T06:56:55;7.13;;;2.85;;
73428;SDS011;61643;49.564;17.412;2023-04-28T06:59:21;5.13;;;2.55;;
73428;SDS011;61643;49.564;17.412;2023-04-28T07:01:47;4.80;;;2.90;;
73428;SDS011;61643;49.564;17.412;2023-04-28T07:04:13;4.72;;;2.60;;
73428;SDS011;61643;49.564;17.412;2023-04-28T07:06:39;5.93;;;3.05;;
73428;SDS011;61643;49.564;17.412;2023-04-28T07:09:05;4.90;;;2.97;;
73428;SDS011;61643;49.564;17.412;2023-04-28T07:11:31;5.22;;;2.60;;
73428;SDS011;61643;49.564;17.412;2023-04-28T07:13:57;5.40;;;2.67;;
73428;SDS011;61643;49.564;17.412;2023-04-28T07:16:24;5.45;;;2.80;;
73428;SDS011;61643;49.564;17.412;2023-04-28T07:18:50;6.22;;;2.85;;
73428;SDS011;61643;49.564;17.412;2023-04-28T07:21:16;5.30;;;3.17;;
73428;SDS011;61643;49.564;17.412;2023-04-28T07:23:42;7.22;;;3.17;;
73428;SDS011;61643;49.564;17.412;2023-04-28T07:26:08;5.07;;;3.13;;
73428;SDS011;61643;49.564;17.412;2023-04-28T07:28:34;5.88;;;3.13;;
73428;SDS011;61643;49.564;17.412;2023-04-28T07:31:00;7.45;;;3.40;;
73428;SDS011;61643;49.564;17.412;2023-04-28T07:33:26;5.22;;;3.17;;
73428;SDS011;61643;49.564;17.412;2023-04-28T07:35:52;6.50;;;3.25;;
73428;SDS011;61643;49.564;17.412;2023-04-28T07:38:18;4.75;;;3.15;;
73428;SDS011;61643;49.564;17.412;2023-04-28T07:40:45;6.40;;;2.97;;
73428;SDS011;61643;49.564;17.412;2023-04-28T07:43:11;7.30;;;3.17;;
73428;SDS011;61643;49.564;17.412;2023-04-28T07:45:38;6.70;;;3.08;;
73428;SDS011;61643;49.564;17.412;2023-04-28T07:48:04;5.40;;;3.45;;
73428;SDS011;61643;49.564;17.412;2023-04-28T07:50:31;6.22;;;3.17;;
73428;SDS011;61643;49.564;17.412;2023-04-28T07:52:58;6.53;;;2.75;;
73428;SDS011;61643;49.564;17.412;2023-04-28T07:55:24;4.28;;;3.15;;
73428;SDS011;61643;49.564;17.412;2023-04-28T07:57:50;7.05;;;3.08;;
73428;SDS011;61643;49.564;17.412;2023-04-28T08:00:16;6.00;;;2.95;;
73428;SDS011;61643;49.564;17.412;2023-04-28T08:02:44;5.28;;;2.55;;
73428;SDS011;61643;49.564;17.412;2023-04-28T08:05:10;4.57;;;3.13;;
73428;SDS011;61643;49.564;17.412;2023-04-28T08:07:36;5.97;;;2.92;;
73428;SDS011;61643;49.564;17.412;2023-04-28T08:10:05;5.47;;;2.83;;
73428;SDS011;61643;49.564;17.412;2023-04-28T08:12:33;5.10;;;2.97;;
73428;SDS011;61643;49.564;17.412;2023-04-28T08:14:59;5.85;;;2.95;;
73428;SDS011;61643;49.564;17.412;2023-04-28T08:17:25;4.97;;;2.83;;
73428;SDS011;61643;49.564;17.412;2023-04-28T08:19:52;5.97;;;2.92;;
73428;SDS011;61643;49.564;17.412;2023-04-28T08:22:18;5.25;;;2.70;;
73428;SDS011;61643;49.564;17.412;2023-04-28T08:24:44;5.65;;;3.20;;
73428;SDS011;61643;49.564;17.412;2023-04-28T08:27:10;7.55;;;3.25;;
73428;SDS011;61643;49.564;17.412;2023-04-28T08:29:37;4.93;;;3.00;;
73428;SDS011;61643;49.564;17.412;2023-04-28T08:32:03;6.90;;;3.38;;
73428;SDS011;61643;49.564;17.412;2023-04-28T08:34:31;7.47;;;3.20;;
73428;SDS011;61643;49.564;17.412;2023-04-28T08:36:57;6.45;;;3.25;;
73428;SDS011;61643;49.564;17.412;2023-04-28T08:39:24;5.68;;;2.83;;
73428;SDS011;61643;49.564;17.412;2023-04-28T08:41:51;8.38;;;3.42;;
73428;SDS011;61643;49.564;17.412;2023-04-28T08:44:18;8.43;;;3.35;;
73428;SDS011;61643;49.564;17.412;2023-04-28T08:46:45;5.30;;;3.72;;
73428;SDS011;61643;49.564;17.412;2023-04-28T08:49:15;5.82;;;3.30;;
73428;SDS011;61643;49.564;17.412;2023-04-28T08:51:43;4.55;;;3.25;;
73428;SDS011;61643;49.564;17.412;2023-04-28T08:54:22;6.53;;;3.35;;
73428;SDS011;61643;49.564;17.412;2023-04-28T08:56:48;5.60;;;3.30;;
73428;SDS011;61643;49.564;17.412;2023-04-28T08:59:15;6.93;;;3.03;;
73428;SDS011;61643;49.564;17.412;2023-04-28T09:01:42;6.88;;;2.75;;
73428;SDS011;61643;49.564;17.412;2023-04-28T09:04:12;9.73;;;3.30;;
73428;SDS011;61643;49.564;17.412;2023-04-28T09:09:22;5.82;;;2.85;;
73428;SDS011;61643;49.564;17.412;2023-04-28T09:11:56;6.20;;;3.08;;
73428;SDS011;61643;49.564;17.412;2023-04-28T09:14:24;9.93;;;3.08;;
73428;SDS011;61643;49.564;17.412;2023-04-28T09:16:52;5.75;;;3.00;;
73428;SDS011;61643;49.564;17.412;2023-04-28T09:19:18;7.03;;;3.20;;
73428;SDS011;61643;49.564;17.412;2023-04-28T09:26:57;6.78;;;3.05;;
73428;SDS011;61643;49.564;17.412;2023-04-28T09:29:24;6.90;;;2.90;;
73428;SDS011;61643;49.564;17.412;2023-04-28T09:31:50;5.30;;;2.70;;
73428;SDS011;61643;49.564;17.412;2023-04-28T09:34:17;5.93;;;3.03;;
73428;SDS011;61643;49.564;17.412;2023-04-28T09:36:44;6.30;;;3.22;;
73428;SDS011;61643;49.564;17.412;2023-04-28T09:39:10;5.07;;;2.92;;
73428;SDS011;61643;49.564;17.412;2023-04-28T09:41:45;4.90;;;2.90;;
73428;SDS011;61643;49.564;17.412;2023-04-28T09:44:18;5.40;;;3.13;;
73428;SDS011;61643;49.564;17.412;2023-04-28T09:46:46;6.35;;;3.00;;
73428;SDS011;61643;49.564;17.412;2023-04-28T09:49:12;6.05;;;3.20;;
73428;SDS011;61643;49.564;17.412;2023-04-28T09:51:40;5.80;;;3.20;;
73428;SDS011;61643;49.564;17.412;2023-04-28T09:54:06;5.65;;;2.72;;
73428;SDS011;61643;49.564;17.412;2023-04-28T09:56:33;6.30;;;3.13;;
73428;SDS011;61643;49.564;17.412;2023-04-28T09:59:02;7.05;;;2.97;;
73428;SDS011;61643;49.564;17.412;2023-04-28T10:01:39;4.85;;;2.80;;
73428;SDS011;61643;49.564;17.412;2023-04-28T10:04:05;7.38;;;2.58;;
73428;SDS011;61643;49.564;17.412;2023-04-28T10:06:35;6.35;;;2.50;;
73428;SDS011;61643;49.564;17.412;2023-04-28T10:09:01;5.28;;;2.70;;
73428;SDS011;61643;49.564;17.412;2023-04-28T10:11:28;4.72;;;2.67;;
73428;SDS011;61643;49.564;17.412;2023-04-28T10:13:55;6.28;;;2.85;;
73428;SDS011;61643;49.564;17.412;2023-04-28T10:16:21;5.30;;;2.85;;
73428;SDS011;61643;49.564;17.412;2023-04-28T10:18:48;4.82;;;2.50;;
73428;SDS011;61643;49.564;17.412;2023-04-28T10:21:16;6.43;;;2.72;;
73428;SDS011;61643;49.564;17.412;2023-04-28T10:29:24;7.15;;;2.63;;
73428;SDS011;61643;49.564;17.412;2023-04-28T10:34:41;3.90;;;2.80;;
73428;SDS011;61643;49.564;17.412;2023-04-28T10:37:07;6.80;;;2.80;;
73428;SDS011;61643;49.564;17.412;2023-04-28T10:39:34;6.15;;;2.78;;
73428;SDS011;61643;49.564;17.412;2023-04-28T10:42:00;4.60;;;2.60;;
73428;SDS011;61643;49.564;17.412;2023-04-28T10:47:01;4.53;;;2.60;;
73428;SDS011;61643;49.564;17.412;2023-04-28T10:55:43;6.30;;;2.78;;
73428;SDS011;61643;49.564;17.412;2023-04-28T11:00:41;6.28;;;2.55;;
73428;SDS011;61643;49.564;17.412;2023-04-28T11:06:25;5.97;;;3.00;;
73428;SDS011;61643;49.564;17.412;2023-04-28T11:08:54;5.20;;;2.60;;
73428;SDS011;61643;49.564;17.412;2023-04-28T11:11:22;6.07;;;2.58;;
73428;SDS011;61643;49.564;17.412;2023-04-28T11:13:50;3.42;;;2.08;;
73428;SDS011;61643;49.564;17.412;2023-04-28T11:16:47;5.75;;;2.78;;
73428;SDS011;61643;49.564;17.412;2023-04-28T11:19:21;8.73;;;2.95;;
73428;SDS011;61643;49.564;17.412;2023-04-28T11:21:52;5.93;;;2.97;;
73428;SDS011;61643;49.564;17.412;2023-04-28T11:24:20;5.97;;;3.00;;
73428;SDS011;61643;49.564;17.412;2023-04-28T11:26:47;5.97;;;2.92;;
73428;SDS011;61643;49.564;17.412;2023-04-28T11:29:13;3.92;;;2.55;;
73428;SDS011;61643;49.564;17.412;2023-04-28T11:31:39;5.75;;;2.97;;
73428;SDS011;61643;49.564;17.412;2023-04-28T11:34:17;4.50;;;2.50;;
73428;SDS011;61643;49.564;17.412;2023-04-28T11:36:44;4.40;;;2.40;;
73428;SDS011;61643;49.564;17.412;2023-04-28T11:39:11;4.50;;;2.47;;
73428;SDS011;61643;49.564;17.412;2023-04-28T11:41:39;4.75;;;2.55;;
73428;SDS011;61643;49.564;17.412;2023-04-28T11:49:15;4.25;;;2.20;;
73428;SDS011;61643;49.564;17.412;2023-04-28T11:51:41;4.50;;;2.63;;
73428;SDS011;61643;49.564;17.412;2023-04-28T11:54:10;4.65;;;2.28;;
73428;SDS011;61643;49.564;17.412;2023-04-28T11:56:37;4.35;;;2.25;;
73428;SDS011;61643;49.564;17.412;2023-04-28T11:59:05;4.45;;;2.30;;
73428;SDS011;61643;49.564;17.412;2023-04-28T12:01:34;3.05;;;2.13;;
73428;SDS011;61643;49.564;17.412;2023-04-28T12:04:09;5.13;;;2.45;;
73428;SDS011;61643;49.564;17.412;2023-04-28T12:06:35;3.20;;;2.28;;
73428;SDS011;61643;49.564;17.412;2023-04-28T12:09:13;6.40;;;2.45;;
73428;SDS011;61643;49.564;17.412;2023-04-28T12:11:50;7.40;;;2.88;;
73428;SDS011;61643;49.564;17.412;2023-04-28T12:14:17;5.75;;;2.67;;
73428;SDS011;61643;49.564;17.412;2023-04-28T12:16:44;7.38;;;2.30;;
73428;SDS011;61643;49.564;17.412;2023-04-28T12:19:11;3.35;;;2.30;;
73428;SDS011;61643;49.564;17.412;2023-04-28T12:21:39;5.00;;;2.58;;
73428;SDS011;61643;49.564;17.412;2023-04-28T12:24:18;4.03;;;2.30;;
73428;SDS011;61643;49.564;17.412;2023-04-28T12:26:49;5.78;;;2.42;;
73428;SDS011;61643;49.564;17.412;2023-04-28T12:29:33;3.92;;;2.30;;
73428;SDS011;61643;49.564;17.412;2023-04-28T12:32:01;6.43;;;2.50;;
73428;SDS011;61643;49.564;17.412;2023-04-28T12:34:28;6.72;;;2.55;;
73428;SDS011;61643;49.564;17.412;2023-04-28T12:36:55;4.22;;;2.70;;
73428;SDS011;61643;49.564;17.412;2023-04-28T12:39:21;4.72;;;2.45;;
73428;SDS011;61643;49.564;17.412;2023-04-28T12:41:49;3.58;;;2.38;;
73428;SDS011;61643;49.564;17.412;2023-04-28T12:44:15;6.38;;;2.83;;
73428;SDS011;61643;49.564;17.412;2023-04-28T12:46:41;7.25;;;2.58;;
73428;SDS011;61643;49.564;17.412;2023-04-28T12:49:07;5.82;;;2.50;;
73428;SDS011;61643;49.564;17.412;2023-04-28T12:51:33;6.35;;;2.70;;
73428;SDS011;61643;49.564;17.412;2023-04-28T12:53:59;5.78;;;2.55;;
73428;SDS011;61643;49.564;17.412;2023-04-28T12:56:26;3.00;;;2.15;;
73428;SDS011;61643;49.564;17.412;2023-04-28T12:58:52;5.07;;;2.60;;
73428;SDS011;61643;49.564;17.412;2023-04-28T13:01:18;4.57;;;2.35;;
73428;SDS011;61643;49.564;17.412;2023-04-28T13:03:44;5.50;;;2.70;;
73428;SDS011;61643;49.564;17.412;2023-04-28T13:06:12;3.88;;;2.20;;
73428;SDS011;61643;49.564;17.412;2023-04-28T13:08:38;3.20;;;2.15;;
73428;SDS011;61643;49.564;17.412;2023-04-28T13:11:04;3.85;;;2.28;;
73428;SDS011;61643;49.564;17.412;2023-04-28T13:13:30;3.92;;;2.30;;
73428;SDS011;61643;49.564;17.412;2023-04-28T13:15:56;4.70;;;2.30;;
73428;SDS011;61643;49.564;17.412;2023-04-28T13:18:22;7.28;;;2.60;;
73428;SDS011;61643;49.564;17.412;2023-04-28T13:20:48;4.65;;;2.38;;
73428;SDS011;61643;49.564;17.412;2023-04-28T13:23:14;5.18;;;2.45;;
73428;SDS011;61643;49.564;17.412;2023-04-28T13:25:40;4.35;;;2.17;;
73428;SDS011;61643;49.564;17.412;2023-04-28T13:28:06;2.85;;;2.25;;
73428;SDS011;61643;49.564;17.412;2023-04-28T13:30:32;5.63;;;2.55;;
73428;SDS011;61643;49.564;17.412;2023-04-28T13:32:59;4.53;;;2.20;;
73428;SDS011;61643;49.564;17.412;2023-04-28T13:35:25;5.50;;;2.15;;
73428;SDS011;61643;49.564;17.412;2023-04-28T13:37:51;4.68;;;2.63;;
73428;SDS011;61643;49.564;17.412;2023-04-28T13:40:29;6.32;;;2.40;;
73428;SDS011;61643;49.564;17.412;2023-04-28T13:42:55;6.38;;;2.03;;
73428;SDS011;61643;49.564;17.412;2023-04-28T13:45:21;3.50;;;2.33;;
73428;SDS011;61643;49.564;17.412;2023-04-28T13:47:47;4.18;;;2.15;;
73428;SDS011;61643;49.564;17.412;2023-04-28T13:50:13;5.03;;;2.22;;
73428;SDS011;61643;49.564;17.412;2023-04-28T13:52:39;5.07;;;2.13;;
73428;SDS011;61643;49.564;17.412;2023-04-28T13:55:06;7.00;;;2.40;;
73428;SDS011;61643;49.564;17.412;2023-04-28T13:57:32;3.17;;;2.05;;
73428;SDS011;61643;49.564;17.412;2023-04-28T13:59:58;4.70;;;2.30;;
73428;SDS011;61643;49.564;17.412;2023-04-28T14:02:24;8.40;;;2.58;;
73428;SDS011;61643;49.564;17.412;2023-04-28T14:04:51;4.85;;;2.15;;
73428;SDS011;61643;49.564;17.412;2023-04-28T14:07:17;4.78;;;2.58;;
73428;SDS011;61643;49.564;17.412;2023-04-28T14:09:43;4.82;;;2.40;;
73428;SDS011;61643;49.564;17.412;2023-04-28T14:12:09;4.20;;;2.30;;
73428;SDS011;61643;49.564;17.412;2023-04-28T14:14:36;5.28;;;2.83;;
73428;SDS011;61643;49.564;17.412;2023-04-28T14:17:03;7.93;;;2.70;;
73428;SDS011;61643;49.564;17.412;2023-04-28T14:19:29;3.17;;;2.60;;
73428;SDS011;61643;49.564;17.412;2023-04-28T14:21:55;4.55;;;2.80;;
73428;SDS011;61643;49.564;17.412;2023-04-28T14:24:21;4.20;;;2.72;;
73428;SDS011;61643;49.564;17.412;2023-04-28T14:26:47;6.22;;;2.60;;
73428;SDS011;61643;49.564;17.412;2023-04-28T14:29:14;4.00;;;2.42;;
73428;SDS011;61643;49.564;17.412;2023-04-28T14:31:40;8.20;;;3.70;;
73428;SDS011;61643;49.564;17.412;2023-04-28T14:34:06;7.45;;;3.40;;
73428;SDS011;61643;49.564;17.412;2023-04-28T14:36:33;5.15;;;2.90;;
73428;SDS011;61643;49.564;17.412;2023-04-28T14:38:59;6.82;;;3.00;;
73428;SDS011;61643;49.564;17.412;2023-04-28T14:41:25;5.45;;;2.63;;
73428;SDS011;61643;49.564;17.412;2023-04-28T14:43:51;6.80;;;2.83;;
73428;SDS011;61643;49.564;17.412;2023-04-28T14:46:17;6.65;;;3.10;;
73428;SDS011;61643;49.564;17.412;2023-04-28T14:48:48;6.50;;;3.40;;
73428;SDS011;61643;49.564;17.412;2023-04-28T14:51:14;4.32;;;2.90;;
73428;SDS011;61643;49.564;17.412;2023-04-28T14:53:41;6.80;;;2.85;;
73428;SDS011;61643;49.564;17.412;2023-04-28T14:56:07;7.38;;;3.00;;
73428;SDS011;61643;49.564;17.412;2023-04-28T14:58:36;5.35;;;2.80;;
73428;SDS011;61643;49.564;17.412;2023-04-28T15:01:02;7.00;;;3.10;;
73428;SDS011;61643;49.564;17.412;2023-04-28T15:03:28;5.45;;;2.78;;
73428;SDS011;61643;49.564;17.412;2023-04-28T15:05:54;5.40;;;3.20;;
73428;SDS011;61643;49.564;17.412;2023-04-28T15:08:20;6.72;;;3.20;;